createdAt,value
2023-03-16T00:00:28.030Z,58.86
2023-03-16T00:01:30.440Z,58.70
2023-03-16T00:02:32.653Z,58.72
2023-03-16T00:03:35.188Z,58.76
2023-03-16T00:04:38.162Z,59.05
2023-03-16T00:05:40.412Z,58.91
2023-03-16T00:06:42.690Z,58.82
2023-03-16T00:07:45.136Z,58.84
2023-03-16T00:08:47.521Z,58.85
2023-03-16T00:09:49.829Z,58.94
2023-03-16T00:10:54.278Z,59.07
2023-03-16T00:12:03.453Z,59.22
2023-03-16T00:13:07.222Z,59.02
2023-03-16T00:14:09.449Z,59.27
2023-03-16T00:15:12.712Z,59.17
2023-03-16T00:16:17.123Z,59.25
2023-03-16T00:17:20.917Z,59.20
2023-03-16T00:18:27.434Z,59.25
2023-03-16T00:19:29.729Z,59.38
2023-03-16T00:20:33.684Z,59.16
2023-03-16T00:21:36.280Z,59.22
2023-03-16T00:22:38.515Z,59.21
2023-03-16T00:23:42.698Z,59.13
2023-03-16T00:24:45.030Z,59.12
2023-03-16T00:25:47.286Z,59.03
2023-03-16T00:26:54.893Z,59.15
2023-03-16T00:27:57.479Z,59.17
2023-03-16T00:28:59.760Z,59.13
2023-03-16T00:30:03.192Z,59.21
2023-03-16T00:31:12.070Z,59.07
2023-03-16T00:32:19.405Z,59.08
2023-03-16T00:33:23.355Z,59.18
2023-03-16T00:34:25.723Z,59.03
2023-03-16T00:35:28.184Z,59.19
2023-03-16T00:36:30.761Z,59.20
2023-03-16T00:37:33.993Z,59.18
2023-03-16T00:38:38.800Z,59.18
2023-03-16T00:39:42.133Z,59.24
2023-03-16T00:40:44.801Z,59.12
2023-03-16T00:41:46.981Z,59.22
2023-03-16T00:42:49.226Z,59.07
2023-03-16T00:43:52.155Z,59.09
2023-03-16T00:44:58.248Z,59.09
2023-03-16T00:46:06.916Z,59.14
2023-03-16T00:47:14.279Z,59.17
2023-03-16T00:48:17.411Z,59.20
2023-03-16T00:49:19.590Z,59.07
2023-03-16T00:50:22.464Z,59.20
2023-03-16T00:51:24.729Z,59.01
2023-03-16T00:52:28.419Z,59.02
2023-03-16T00:53:31.472Z,59.14
2023-03-16T00:54:33.843Z,59.24
2023-03-16T00:55:36.059Z,59.23
2023-03-16T00:56:38.825Z,59.00
2023-03-16T00:57:41.672Z,59.15
2023-03-16T00:58:44.124Z,58.99
2023-03-16T00:59:47.487Z,58.93
2023-03-16T01:00:49.977Z,58.92
2023-03-16T01:01:53.162Z,58.98
2023-03-16T01:02:55.518Z,59.19
2023-03-16T01:03:57.860Z,59.02
2023-03-16T01:05:00.450Z,59.10
2023-03-16T01:06:11.098Z,58.99
2023-03-16T01:07:14.697Z,59.17
2023-03-16T01:08:17.198Z,59.12
2023-03-16T01:09:20.610Z,59.16
2023-03-16T01:10:23.091Z,59.23
2023-03-16T01:11:25.359Z,59.03
2023-03-16T01:12:28.127Z,59.04
2023-03-16T01:13:30.651Z,59.02
2023-03-16T01:14:35.042Z,59.03
2023-03-16T01:15:39.290Z,59.13
2023-03-16T01:16:41.712Z,59.13
2023-03-16T01:17:44.020Z,59.05
2023-03-16T01:18:47.952Z,59.14
2023-03-16T01:19:50.750Z,59.09
2023-03-16T01:20:53.537Z,59.09
2023-03-16T01:21:56.325Z,58.96
2023-03-16T01:22:58.617Z,59.07
2023-03-16T01:24:01.667Z,59.08
2023-03-16T01:25:05.002Z,59.13
2023-03-16T01:26:08.592Z,59.05
2023-03-16T01:27:12.946Z,58.95
2023-03-16T01:28:16.818Z,58.95
2023-03-16T01:29:19.931Z,59.04
2023-03-16T01:30:22.591Z,59.15
2023-03-16T01:31:25.067Z,59.13
2023-03-16T01:32:27.536Z,58.94
2023-03-16T01:33:30.593Z,58.95
2023-03-16T01:34:34.090Z,59.03
2023-03-16T01:35:36.402Z,59.18
2023-03-16T01:36:39.188Z,59.09
2023-03-16T01:37:42.780Z,59.10
2023-03-16T01:38:54.853Z,58.96
2023-03-16T01:39:59.036Z,59.09
2023-03-16T01:41:01.808Z,59.00
2023-03-16T01:42:04.064Z,59.01
2023-03-16T01:43:07.505Z,58.92
2023-03-16T01:44:17.598Z,59.01
2023-03-16T01:45:57.601Z,59.00
2023-03-16T01:47:00.536Z,58.80
2023-03-16T01:48:02.999Z,58.96
2023-03-16T01:49:17.055Z,59.08
2023-03-16T01:50:19.480Z,58.91
2023-03-16T01:51:34.051Z,58.89
2023-03-16T01:52:38.057Z,58.93
2023-03-16T01:53:44.833Z,58.88
2023-03-16T01:54:56.166Z,59.02
2023-03-16T01:56:00.606Z,58.98
2023-03-16T01:57:16.326Z,59.13
2023-03-16T01:58:19.347Z,58.91
2023-03-16T01:59:26.342Z,58.92
2023-03-16T02:00:32.056Z,58.88
2023-03-16T02:01:40.442Z,59.02
2023-03-16T02:02:44.921Z,59.02
2023-03-16T02:04:04.170Z,58.87
2023-03-16T02:05:38.738Z,58.93
2023-03-16T02:06:42.374Z,58.85
2023-03-16T02:07:48.013Z,58.90
2023-03-16T02:08:55.439Z,58.82
2023-03-16T02:10:01.137Z,59.01
2023-03-16T02:11:04.910Z,58.79
2023-03-16T02:12:20.570Z,58.81
2023-03-16T02:13:29.779Z,58.85
2023-03-16T02:14:32.289Z,58.90
2023-03-16T02:15:36.595Z,58.94
2023-03-16T02:16:40.849Z,58.86
2023-03-16T02:17:45.248Z,58.93
2023-03-16T02:18:51.472Z,59.00
2023-03-16T02:20:12.233Z,58.87
2023-03-16T02:21:40.283Z,58.81
2023-03-16T02:22:50.189Z,58.81
2023-03-16T02:23:53.546Z,58.96
2023-03-16T02:24:55.868Z,58.93
2023-03-16T02:26:06.538Z,58.88
2023-03-16T02:27:20.348Z,59.08
2023-03-16T02:28:29.934Z,58.96
2023-03-16T02:30:14.947Z,58.88
2023-03-16T02:31:29.762Z,59.04
2023-03-16T02:32:33.583Z,58.98
2023-03-16T02:33:39.634Z,59.07
2023-03-16T02:34:43.875Z,59.04
2023-03-16T02:35:48.295Z,59.00
2023-03-16T02:36:53.162Z,59.24
2023-03-16T02:37:59.868Z,59.34
2023-03-16T02:39:06.049Z,59.08
2023-03-16T02:40:22.587Z,59.28
2023-03-16T02:41:26.558Z,59.01
2023-03-16T02:42:32.889Z,59.15
2023-03-16T02:43:38.069Z,59.17
2023-03-16T02:44:59.419Z,59.25
2023-03-16T02:46:06.869Z,59.39
2023-03-16T02:47:24.801Z,59.27
2023-03-16T02:48:36.054Z,59.23
2023-03-16T02:49:41.594Z,59.25
2023-03-16T02:50:49.611Z,59.30
2023-03-16T02:51:52.433Z,59.18
2023-03-16T02:52:54.959Z,59.30
2023-03-16T02:53:57.264Z,59.28
2023-03-16T02:55:00.469Z,59.39
2023-03-16T02:56:03.157Z,59.39
2023-03-16T02:57:08.392Z,59.27
2023-03-16T02:58:12.091Z,59.49
2023-03-16T02:59:14.617Z,59.50
2023-03-16T03:00:19.249Z,59.50
2023-03-16T03:01:26.051Z,59.67
2023-03-16T03:02:28.215Z,59.68
2023-03-16T03:03:30.602Z,59.71
2023-03-16T03:04:33.834Z,59.51
2023-03-16T03:05:37.395Z,59.45
2023-03-16T03:06:39.918Z,59.50
2023-03-16T03:07:42.224Z,59.50
2023-03-16T03:08:44.581Z,59.49
2023-03-16T03:09:47.575Z,59.53
2023-03-16T03:10:49.886Z,59.62
2023-03-16T03:11:52.142Z,59.72
2023-03-16T03:12:54.414Z,59.85
2023-03-16T03:13:57.003Z,59.72
2023-03-16T03:15:02.119Z,59.79
2023-03-16T03:16:14.449Z,59.63
2023-03-16T03:17:17.038Z,59.83
2023-03-16T03:18:19.545Z,59.75
2023-03-16T03:19:23.209Z,59.80
2023-03-16T03:20:25.879Z,59.81
2023-03-16T03:21:29.661Z,59.93
2023-03-16T03:22:33.971Z,60.02
2023-03-16T03:23:36.315Z,60.05
2023-03-16T03:24:38.519Z,60.13
2023-03-16T03:25:40.675Z,60.14
2023-03-16T03:26:45.244Z,60.25
2023-03-16T03:27:54.964Z,60.38
2023-03-16T03:28:58.258Z,60.42
2023-03-16T03:30:00.449Z,60.30
2023-03-16T03:31:04.290Z,60.55
2023-03-16T03:32:06.994Z,60.52
2023-03-16T03:33:09.399Z,60.58
2023-03-16T03:34:11.816Z,60.55
2023-03-16T03:35:15.361Z,60.61
2023-03-16T03:36:18.242Z,60.74
2023-03-16T03:37:21.137Z,60.69
2023-03-16T03:38:26.588Z,60.54
2023-03-16T03:39:31.077Z,60.53
2023-03-16T03:40:33.233Z,60.47
2023-03-16T03:41:38.156Z,60.37
2023-03-16T03:42:42.315Z,60.44
2023-03-16T03:43:44.779Z,60.49
2023-03-16T03:44:52.886Z,60.58
2023-03-16T03:45:59.111Z,60.71
2023-03-16T03:47:01.679Z,60.49
2023-03-16T03:48:04.363Z,60.56
2023-03-16T03:49:06.693Z,60.56
2023-03-16T03:50:12.217Z,60.77
2023-03-16T03:51:24.084Z,60.70
2023-03-16T03:52:37.818Z,60.88
2023-03-16T03:53:40.308Z,60.69
2023-03-16T03:55:06.280Z,60.90
2023-03-16T03:56:08.770Z,60.87
2023-03-16T03:57:15.375Z,60.90
2023-03-16T03:58:17.668Z,60.75
2023-03-16T03:59:20.274Z,60.82
2023-03-16T04:00:45.688Z,61.03
2023-03-16T04:01:49.191Z,61.03
2023-03-16T04:02:51.693Z,61.03
2023-03-16T04:04:01.876Z,61.15
2023-03-16T04:05:05.139Z,60.95
2023-03-16T04:06:08.361Z,60.99
2023-03-16T04:07:13.124Z,61.15
2023-03-16T04:08:17.289Z,61.19
2023-03-16T04:09:20.112Z,61.26
2023-03-16T04:10:22.699Z,61.34
2023-03-16T04:11:25.007Z,61.27
2023-03-16T04:12:27.491Z,61.32
2023-03-16T04:13:30.564Z,61.18
2023-03-16T04:14:33.582Z,61.33
2023-03-16T04:15:39.047Z,61.22
2023-03-16T04:16:47.063Z,61.37
2023-03-16T04:17:49.728Z,61.17
2023-03-16T04:18:52.176Z,61.32
2023-03-16T04:19:54.378Z,61.12
2023-03-16T04:20:56.823Z,61.36
2023-03-16T04:22:00.704Z,61.49
2023-03-16T04:23:03.001Z,61.39
2023-03-16T04:24:06.932Z,61.30
2023-03-16T04:25:12.473Z,61.38
2023-03-16T04:26:15.986Z,61.40
2023-03-16T04:27:21.311Z,61.38
2023-03-16T04:28:26.502Z,61.31
2023-03-16T04:29:29.183Z,61.32
2023-03-16T04:30:33.246Z,61.24
2023-03-16T04:31:48.273Z,61.33
2023-03-16T04:32:52.538Z,61.32
2023-03-16T04:33:56.116Z,61.39
2023-03-16T04:35:00.594Z,61.50
2023-03-16T04:36:14.353Z,61.52
2023-03-16T04:37:17.049Z,61.47
2023-03-16T04:38:19.628Z,61.44
2023-03-16T04:39:30.946Z,61.52
2023-03-16T04:40:34.167Z,61.69
2023-03-16T04:41:46.443Z,61.61
2023-03-16T04:42:54.396Z,61.77
2023-03-16T04:43:57.833Z,61.88
2023-03-16T04:45:00.835Z,61.99
2023-03-16T04:46:04.663Z,61.92
2023-03-16T04:47:07.555Z,61.97
2023-03-16T04:48:13.723Z,61.86
2023-03-16T04:49:15.910Z,61.99
2023-03-16T04:50:20.404Z,62.01
2023-03-16T04:51:27.525Z,61.96
2023-03-16T04:52:42.737Z,61.83
2023-03-16T04:53:45.619Z,61.80
2023-03-16T04:54:58.159Z,61.81
2023-03-16T04:56:00.527Z,61.90
2023-03-16T04:57:05.119Z,61.86
2023-03-16T04:58:16.373Z,61.82
2023-03-16T04:59:18.821Z,61.91
2023-03-16T05:00:28.344Z,61.74
2023-03-16T05:01:44.041Z,61.85
2023-03-16T05:02:48.541Z,62.01
2023-03-16T05:03:50.933Z,61.99
2023-03-16T05:04:53.481Z,62.06
2023-03-16T05:05:55.785Z,62.15
2023-03-16T05:06:59.221Z,61.98
2023-03-16T05:08:07.243Z,62.02
2023-03-16T05:09:11.938Z,61.74
2023-03-16T05:10:18.959Z,61.98
2023-03-16T05:11:22.260Z,61.76
2023-03-16T05:12:33.010Z,61.75
2023-03-16T05:13:39.430Z,61.87
2023-03-16T05:14:41.636Z,61.79
2023-03-16T05:15:58.334Z,61.81
2023-03-16T05:17:07.840Z,61.82
2023-03-16T05:18:10.300Z,62.01
2023-03-16T05:19:12.713Z,62.03
2023-03-16T05:20:16.486Z,62.13
2023-03-16T05:21:24.905Z,61.96
2023-03-16T05:22:35.390Z,62.05
2023-03-16T05:24:05.914Z,62.14
2023-03-16T05:25:09.507Z,61.98
2023-03-16T05:26:13.375Z,62.09
2023-03-16T05:27:16.443Z,62.10
2023-03-16T05:28:18.814Z,62.10
2023-03-16T05:29:27.091Z,62.24
2023-03-16T05:30:29.950Z,62.27
2023-03-16T05:31:36.399Z,62.23
2023-03-16T05:32:45.098Z,62.25
2023-03-16T05:33:48.609Z,62.10
2023-03-16T05:34:54.116Z,62.23
2023-03-16T05:35:58.267Z,62.08
2023-03-16T05:37:00.901Z,62.04
2023-03-16T05:38:04.305Z,62.19
2023-03-16T05:39:09.189Z,62.01
2023-03-16T05:40:23.099Z,62.10
2023-03-16T05:41:38.060Z,62.26
2023-03-16T05:43:06.417Z,62.04
2023-03-16T05:44:13.754Z,62.10
2023-03-16T05:45:36.411Z,62.30
2023-03-16T05:46:45.973Z,62.32
2023-03-16T05:47:48.366Z,62.50
2023-03-16T05:48:50.596Z,62.52
2023-03-16T05:49:54.669Z,62.54
2023-03-16T05:51:06.017Z,62.35
2023-03-16T05:52:08.564Z,62.54
2023-03-16T05:53:11.319Z,62.52
2023-03-16T05:54:14.438Z,62.65
2023-03-16T05:55:21.441Z,62.82
2023-03-16T05:56:30.968Z,62.80
2023-03-16T05:57:34.914Z,63.12
2023-03-16T05:58:37.189Z,62.87
2023-03-16T05:59:43.040Z,63.18
2023-03-16T06:00:48.452Z,63.14
2023-03-16T06:01:57.852Z,63.16
2023-03-16T06:03:00.422Z,63.23
2023-03-16T06:04:07.532Z,63.62
2023-03-16T06:05:13.264Z,63.57
2023-03-16T06:06:22.803Z,63.81
2023-03-16T06:07:37.541Z,63.71
2023-03-16T06:08:39.858Z,63.73
2023-03-16T06:09:44.897Z,63.82
2023-03-16T06:10:50.487Z,64.04
2023-03-16T06:11:54.158Z,63.99
2023-03-16T06:12:56.904Z,64.00
2023-03-16T06:14:02.652Z,64.14
2023-03-16T06:15:09.079Z,63.96
2023-03-16T06:16:13.965Z,63.93
2023-03-16T06:17:18.790Z,63.79
2023-03-16T06:18:21.517Z,63.64
2023-03-16T06:19:23.788Z,63.42
2023-03-16T06:20:31.063Z,63.28
2023-03-16T06:21:33.553Z,63.07
2023-03-16T06:22:44.108Z,62.92
2023-03-16T06:23:47.508Z,62.75
2023-03-16T06:24:50.800Z,62.31
2023-03-16T06:25:55.631Z,62.14
2023-03-16T06:27:00.968Z,61.87
2023-03-16T06:28:09.163Z,61.74
2023-03-16T06:29:12.119Z,61.61
2023-03-16T06:30:16.693Z,61.43
2023-03-16T06:31:19.881Z,61.11
2023-03-16T06:32:23.974Z,60.84
2023-03-16T06:33:26.470Z,60.52
2023-03-16T06:34:29.140Z,60.27
2023-03-16T06:35:32.710Z,60.13
2023-03-16T06:36:57.168Z,59.85
2023-03-16T06:37:59.842Z,59.71
2023-03-16T06:39:21.756Z,59.05
2023-03-16T06:40:26.316Z,58.82
2023-03-16T06:41:28.644Z,58.34
2023-03-16T06:42:30.818Z,58.13
2023-03-16T06:43:33.571Z,57.59
2023-03-16T06:44:35.822Z,57.21
2023-03-16T06:45:45.055Z,56.97
2023-03-16T06:46:59.101Z,56.48
2023-03-16T06:48:01.514Z,56.18
2023-03-16T06:49:04.969Z,55.79
2023-03-16T06:50:09.128Z,55.58
2023-03-16T06:51:11.330Z,55.39
2023-03-16T06:52:14.341Z,55.08
2023-03-16T06:53:16.552Z,54.75
2023-03-16T06:54:18.820Z,54.04
2023-03-16T06:55:21.106Z,53.89
2023-03-16T06:56:25.361Z,53.64
2023-03-16T06:57:27.674Z,53.61
2023-03-16T06:58:29.875Z,53.55
2023-03-16T06:59:32.137Z,53.26
2023-03-16T07:00:34.374Z,53.17
2023-03-16T07:01:36.676Z,52.85
2023-03-16T07:02:40.601Z,52.57
2023-03-16T07:03:43.921Z,52.31
2023-03-16T07:04:54.110Z,52.04
2023-03-16T07:05:57.606Z,51.77
2023-03-16T07:06:59.780Z,51.38
2023-03-16T07:08:05.029Z,50.52
2023-03-16T07:09:08.056Z,50.18
2023-03-16T07:10:12.790Z,50.03
2023-03-16T07:11:15.133Z,49.97
2023-03-16T07:12:17.352Z,49.78
2023-03-16T07:13:19.789Z,49.69
2023-03-16T07:14:23.459Z,49.78
2023-03-16T07:15:26.951Z,49.72
2023-03-16T07:16:32.333Z,49.23
2023-03-16T07:17:37.430Z,49.16
2023-03-16T07:18:44.349Z,48.90
2023-03-16T07:19:49.268Z,48.15
2023-03-16T07:20:53.740Z,47.73
2023-03-16T07:21:58.116Z,47.72
2023-03-16T07:23:01.382Z,47.71
2023-03-16T07:24:04.454Z,47.34
2023-03-16T07:25:12.346Z,47.21
2023-03-16T07:26:18.887Z,46.83
2023-03-16T07:27:29.716Z,46.62
2023-03-16T07:28:33.145Z,46.32
2023-03-16T07:29:36.850Z,46.30
2023-03-16T07:30:40.469Z,46.04
2023-03-16T07:31:45.522Z,46.07
2023-03-16T07:32:53.278Z,45.97
2023-03-16T07:33:57.740Z,46.04
2023-03-16T07:35:11.817Z,45.81
2023-03-16T07:36:14.653Z,45.64
2023-03-16T07:37:25.831Z,45.45
2023-03-16T07:38:33.572Z,45.33
2023-03-16T07:39:37.860Z,44.80
2023-03-16T07:40:45.038Z,44.83
2023-03-16T07:41:54.582Z,44.68
2023-03-16T07:43:12.369Z,44.63
2023-03-16T07:44:21.795Z,44.50
2023-03-16T07:45:24.577Z,44.36
2023-03-16T07:46:26.838Z,44.30
2023-03-16T07:47:31.750Z,44.36
2023-03-16T07:48:39.316Z,44.60
2023-03-16T07:49:42.028Z,44.50
2023-03-16T07:50:46.702Z,44.41
2023-03-16T07:51:49.786Z,43.84
2023-03-16T07:52:55.021Z,43.90
2023-03-16T07:53:57.307Z,43.38
2023-03-16T07:55:03.938Z,43.50
2023-03-16T07:56:06.723Z,43.25
2023-03-16T07:57:12.081Z,42.98
2023-03-16T07:58:18.323Z,42.74
2023-03-16T07:59:22.610Z,42.78
2023-03-16T08:00:25.152Z,42.74
2023-03-16T08:01:28.429Z,42.82
2023-03-16T08:02:31.521Z,42.72
2023-03-16T08:03:34.140Z,42.91
2023-03-16T08:04:36.741Z,43.12
2023-03-16T08:05:39.293Z,42.78
2023-03-16T08:06:47.979Z,42.54
2023-03-16T08:07:51.589Z,42.36
2023-03-16T08:08:59.754Z,42.27
2023-03-16T08:10:08.626Z,42.15
2023-03-16T08:11:23.915Z,42.37
2023-03-16T08:12:32.010Z,42.20
2023-03-16T08:13:35.441Z,41.64
2023-03-16T08:14:37.727Z,41.66
2023-03-16T08:15:56.176Z,41.81
2023-03-16T08:17:07.328Z,41.58
2023-03-16T08:18:10.296Z,41.60
2023-03-16T08:19:13.214Z,40.72
2023-03-16T08:20:15.694Z,41.07
2023-03-16T08:21:20.096Z,41.18
2023-03-16T08:22:22.659Z,41.46
2023-03-16T08:23:26.084Z,41.52
2023-03-16T08:24:29.776Z,41.77
2023-03-16T08:25:34.329Z,41.52
2023-03-16T08:26:44.643Z,41.65
2023-03-16T08:27:48.823Z,41.98
2023-03-16T08:28:52.189Z,41.79
2023-03-16T08:29:55.622Z,40.90
2023-03-16T08:31:01.594Z,40.87
2023-03-16T08:32:03.991Z,40.93
2023-03-16T08:33:12.973Z,40.73
2023-03-16T08:34:16.320Z,40.64
2023-03-16T08:35:19.496Z,40.88
2023-03-16T08:36:23.632Z,41.08
2023-03-16T08:37:29.002Z,40.88
2023-03-16T08:38:32.459Z,40.80
2023-03-16T08:39:42.255Z,40.60
2023-03-16T08:40:48.773Z,40.09
2023-03-16T08:41:54.102Z,39.90
2023-03-16T08:43:19.769Z,39.75
2023-03-16T08:44:25.655Z,39.22
2023-03-16T08:45:28.836Z,39.24
2023-03-16T08:46:31.108Z,39.49
2023-03-16T08:47:34.821Z,39.14
2023-03-16T08:48:37.149Z,39.32
2023-03-16T08:49:39.337Z,39.03
2023-03-16T08:50:46.648Z,38.71
2023-03-16T08:51:48.929Z,38.37
2023-03-16T08:52:51.110Z,38.88
2023-03-16T08:53:54.314Z,38.96
2023-03-16T08:55:03.568Z,38.96
2023-03-16T08:56:09.389Z,38.66
2023-03-16T08:57:12.414Z,38.49
2023-03-16T08:58:15.493Z,38.37
2023-03-16T08:59:29.011Z,38.33
2023-03-16T09:00:34.808Z,38.25
2023-03-16T09:01:44.174Z,38.34
2023-03-16T09:02:47.144Z,37.95
2023-03-16T09:03:51.424Z,37.60
2023-03-16T09:04:53.808Z,37.19
2023-03-16T09:06:04.499Z,36.73
2023-03-16T09:07:09.277Z,36.68
2023-03-16T09:08:12.839Z,36.56
2023-03-16T09:09:15.925Z,36.57
2023-03-16T09:10:19.150Z,36.36
2023-03-16T09:11:22.370Z,36.40
2023-03-16T09:12:25.101Z,36.33
2023-03-16T09:13:28.910Z,35.65
2023-03-16T09:14:31.174Z,35.68
2023-03-16T09:15:33.991Z,35.51
2023-03-16T09:16:36.559Z,35.67
2023-03-16T09:17:41.704Z,35.37
2023-03-16T09:18:44.009Z,34.82
2023-03-16T09:19:51.965Z,34.54
2023-03-16T09:21:02.626Z,34.42
2023-03-16T09:22:04.781Z,34.79
2023-03-16T09:23:07.004Z,34.69
2023-03-16T09:24:09.755Z,34.22
2023-03-16T09:25:12.026Z,34.40
2023-03-16T09:26:14.971Z,34.64
2023-03-16T09:27:18.207Z,34.34
2023-03-16T09:28:22.094Z,34.26
2023-03-16T09:29:24.708Z,33.62
2023-03-16T09:30:26.933Z,33.46
2023-03-16T09:31:29.964Z,33.91
2023-03-16T09:32:34.139Z,34.25
2023-03-16T09:33:37.067Z,33.85
2023-03-16T09:34:39.347Z,33.77
2023-03-16T09:35:41.620Z,33.38
2023-03-16T09:36:43.828Z,33.65
2023-03-16T09:38:04.305Z,33.94
2023-03-16T09:39:07.732Z,34.28
2023-03-16T09:40:23.161Z,33.93
2023-03-16T09:41:40.201Z,33.58
2023-03-16T09:42:59.783Z,33.89
2023-03-16T09:44:24.211Z,34.09
2023-03-16T09:45:41.889Z,33.59
2023-03-16T09:46:48.039Z,33.12
2023-03-16T09:47:55.056Z,33.11
2023-03-16T09:48:58.271Z,33.68
2023-03-16T09:50:04.615Z,33.66
2023-03-16T09:51:28.548Z,33.76
2023-03-16T09:53:04.726Z,33.79
2023-03-16T09:54:19.451Z,33.49
2023-03-16T09:55:31.495Z,33.28
2023-03-16T09:56:44.751Z,33.67
2023-03-16T09:57:48.149Z,33.01
2023-03-16T09:58:50.396Z,33.21
2023-03-16T09:59:55.226Z,32.73
2023-03-16T10:01:18.003Z,32.85
2023-03-16T10:02:52.686Z,33.19
2023-03-16T10:04:12.313Z,33.29
2023-03-16T10:05:17.320Z,33.31
2023-03-16T10:06:19.580Z,32.56
2023-03-16T10:07:24.831Z,32.58
2023-03-16T10:08:37.470Z,32.72
2023-03-16T10:09:49.768Z,31.98
2023-03-16T10:11:14.773Z,32.85
2023-03-16T10:12:19.761Z,31.53
2023-03-16T10:13:36.445Z,31.57
2023-03-16T10:14:46.880Z,31.94
2023-03-16T10:15:51.538Z,31.45
2023-03-16T10:17:00.768Z,31.17
2023-03-16T10:18:13.642Z,31.34
2023-03-16T10:19:23.455Z,31.73
2023-03-16T10:20:33.231Z,31.54
2023-03-16T10:21:39.817Z,31.42
2023-03-16T10:22:48.200Z,30.83
2023-03-16T10:23:54.349Z,31.40
2023-03-16T10:25:10.231Z,31.29
2023-03-16T10:26:28.650Z,32.10
2023-03-16T10:27:37.157Z,31.84
2023-03-16T10:28:39.783Z,32.05
2023-03-16T10:29:41.933Z,31.74
2023-03-16T10:30:45.137Z,32.18
2023-03-16T10:31:48.966Z,31.73
2023-03-16T10:32:52.770Z,32.12
2023-03-16T10:34:02.941Z,31.96
2023-03-16T10:35:34.764Z,31.81
2023-03-16T10:36:41.633Z,31.15
2023-03-16T10:37:43.951Z,30.73
2023-03-16T10:38:55.465Z,30.60
2023-03-16T10:39:57.642Z,30.69
2023-03-16T10:41:00.895Z,30.78
2023-03-16T10:42:03.067Z,31.14
2023-03-16T10:43:13.870Z,31.54
2023-03-16T10:44:23.597Z,31.38
2023-03-16T10:45:27.682Z,31.58
2023-03-16T10:46:44.283Z,31.19
2023-03-16T10:47:46.552Z,31.24
2023-03-16T10:49:01.332Z,31.61
2023-03-16T10:50:16.850Z,32.10
2023-03-16T10:51:25.446Z,31.52
2023-03-16T10:52:47.026Z,32.00
2023-03-16T10:53:50.887Z,31.45
2023-03-16T10:54:58.805Z,31.79
2023-03-16T10:56:21.116Z,31.62
2023-03-16T10:57:34.988Z,31.43
2023-03-16T10:58:42.702Z,31.25
2023-03-16T10:59:49.941Z,31.41
2023-03-16T11:00:53.755Z,31.34
2023-03-16T11:01:57.223Z,30.97
2023-03-16T11:03:00.212Z,30.85
2023-03-16T11:04:02.777Z,31.02
2023-03-16T11:05:30.967Z,31.21
2023-03-16T11:06:33.715Z,30.79
2023-03-16T11:07:36.374Z,30.81
2023-03-16T11:08:39.931Z,31.12
2023-03-16T11:09:43.312Z,30.77
2023-03-16T11:10:55.461Z,30.52
2023-03-16T11:11:59.793Z,30.37
2023-03-16T11:13:26.296Z,31.09
2023-03-16T11:14:30.031Z,30.78
2023-03-16T11:16:14.800Z,31.39
2023-03-16T11:17:25.304Z,30.67
2023-03-16T11:18:42.849Z,30.70
2023-03-16T11:19:48.618Z,30.97
2023-03-16T11:20:52.708Z,31.26
2023-03-16T11:22:06.544Z,31.04
2023-03-16T11:23:16.549Z,30.66
2023-03-16T11:24:25.922Z,31.26
2023-03-16T11:25:43.194Z,31.60
2023-03-16T11:26:53.320Z,30.97
2023-03-16T11:28:24.897Z,30.87
2023-03-16T11:30:02.267Z,30.89
2023-03-16T11:31:24.506Z,31.38
2023-03-16T11:32:34.654Z,31.10
2023-03-16T11:33:38.081Z,30.73
2023-03-16T11:34:43.508Z,30.85
2023-03-16T11:36:04.707Z,31.28
2023-03-16T11:37:19.496Z,31.69
2023-03-16T11:38:41.290Z,31.83
2023-03-16T11:40:03.366Z,31.68
2023-03-16T11:41:15.460Z,31.26
2023-03-16T11:42:31.160Z,31.32
2023-03-16T11:43:41.854Z,31.55
2023-03-16T11:45:15.530Z,32.09
2023-03-16T11:46:23.510Z,31.68
2023-03-16T11:47:40.963Z,31.69
2023-03-16T11:49:05.386Z,31.53
2023-03-16T11:50:34.487Z,31.92
2023-03-16T11:51:47.965Z,31.56
2023-03-16T11:53:07.286Z,31.93
2023-03-16T11:54:35.900Z,32.02
2023-03-16T11:56:00.417Z,31.69
2023-03-16T11:57:26.442Z,32.15
2023-03-16T11:58:53.759Z,32.04
2023-03-16T12:00:30.101Z,31.94
2023-03-16T12:02:00.026Z,31.75
2023-03-16T12:03:41.037Z,31.87
2023-03-16T12:04:52.230Z,32.02
2023-03-16T12:05:59.198Z,32.29
2023-03-16T12:07:47.953Z,32.72
2023-03-16T12:09:08.663Z,32.56
2023-03-16T12:10:24.168Z,32.07
2023-03-16T12:11:37.805Z,32.39
2023-03-16T12:12:58.787Z,32.26
2023-03-16T12:14:16.963Z,32.10
2023-03-16T12:15:49.094Z,32.39
2023-03-16T12:17:03.473Z,32.05
2023-03-16T12:18:15.604Z,32.25
2023-03-16T12:19:25.202Z,32.01
2023-03-16T12:20:34.431Z,32.08
2023-03-16T12:21:40.686Z,31.90
2023-03-16T12:23:23.614Z,32.14
2023-03-16T12:24:32.336Z,31.78
2023-03-16T12:25:39.696Z,31.95
2023-03-16T12:26:43.319Z,32.08
2023-03-16T12:27:48.086Z,32.24
2023-03-16T12:28:53.147Z,32.29
2023-03-16T12:30:14.329Z,32.19
2023-03-16T12:31:27.964Z,32.18
2023-03-16T12:33:00.129Z,32.52
2023-03-16T12:34:13.597Z,31.82
2023-03-16T12:35:35.908Z,31.78
2023-03-16T12:37:15.103Z,31.57
2023-03-16T12:38:48.876Z,31.83
2023-03-16T12:40:07.984Z,32.01
2023-03-16T12:41:34.825Z,31.62
2023-03-16T12:42:57.814Z,31.69
2023-03-16T12:44:06.905Z,31.43
2023-03-16T12:45:19.046Z,31.58
2023-03-16T12:46:53.676Z,31.79
2023-03-16T12:48:12.785Z,31.21
2023-03-16T12:49:16.659Z,31.50
2023-03-16T12:50:21.546Z,31.39
2023-03-16T12:51:38.031Z,31.67
2023-03-16T12:52:53.822Z,31.45
2023-03-16T12:53:57.526Z,31.38
2023-03-16T12:55:15.448Z,31.63
2023-03-16T12:56:44.654Z,31.62
2023-03-16T12:57:51.709Z,31.29
2023-03-16T12:58:56.867Z,31.40
2023-03-16T13:00:02.183Z,31.62
2023-03-16T13:01:10.247Z,32.00
2023-03-16T13:02:29.012Z,32.01
2023-03-16T13:03:33.916Z,31.82
2023-03-16T13:04:41.812Z,31.93
2023-03-16T13:05:49.899Z,32.14
2023-03-16T13:07:03.305Z,32.34
2023-03-16T13:08:16.195Z,32.37
2023-03-16T13:09:24.390Z,32.17
2023-03-16T13:10:28.900Z,32.22
2023-03-16T13:11:44.088Z,32.55
2023-03-16T13:12:47.968Z,32.40
2023-03-16T13:14:12.868Z,32.48
2023-03-16T13:15:22.895Z,32.24
2023-03-16T13:16:30.724Z,32.27
2023-03-16T13:17:34.349Z,32.21
2023-03-16T13:18:50.106Z,32.24
2023-03-16T13:20:18.232Z,32.43
2023-03-16T13:21:36.112Z,32.81
2023-03-16T13:22:45.391Z,32.55
2023-03-16T13:24:01.503Z,32.11
2023-03-16T13:25:36.321Z,32.61
2023-03-16T13:26:42.273Z,32.66
2023-03-16T13:27:49.337Z,32.59
2023-03-16T13:28:52.952Z,32.47
2023-03-16T13:30:02.351Z,32.64
2023-03-16T13:31:19.354Z,31.89
2023-03-16T13:32:22.493Z,31.79
2023-03-16T13:33:28.055Z,31.13
2023-03-16T13:34:33.986Z,31.31
2023-03-16T13:35:39.810Z,31.61
2023-03-16T13:36:45.513Z,31.78
2023-03-16T13:37:49.361Z,32.07
2023-03-16T13:39:05.250Z,32.31
2023-03-16T13:40:25.626Z,32.37
2023-03-16T13:41:28.631Z,32.10
2023-03-16T13:42:32.806Z,31.93
2023-03-16T13:43:39.399Z,32.09
2023-03-16T13:44:42.338Z,32.12
2023-03-16T13:45:45.160Z,32.02
2023-03-16T13:46:49.164Z,31.91
2023-03-16T13:47:51.840Z,32.14
2023-03-16T13:48:53.983Z,31.90
2023-03-16T13:50:02.306Z,31.49
2023-03-16T13:51:04.805Z,31.92
2023-03-16T13:52:17.938Z,31.70
2023-03-16T13:53:29.488Z,31.58
2023-03-16T13:54:31.864Z,31.75
2023-03-16T13:55:37.149Z,31.14
2023-03-16T13:56:40.269Z,30.64
2023-03-16T13:57:44.324Z,30.40
2023-03-16T13:58:52.003Z,30.51
2023-03-16T14:00:05.753Z,30.49
2023-03-16T14:01:26.123Z,30.66
2023-03-16T14:02:29.490Z,30.51
2023-03-16T14:03:38.419Z,30.72
2023-03-16T14:04:42.982Z,30.71
2023-03-16T14:05:46.306Z,30.84
2023-03-16T14:07:06.508Z,30.94
2023-03-16T14:08:17.852Z,31.14
2023-03-16T14:09:22.405Z,31.20
2023-03-16T14:10:29.927Z,31.27
2023-03-16T14:11:32.371Z,31.07
2023-03-16T14:12:34.742Z,31.13
2023-03-16T14:13:38.595Z,30.97
2023-03-16T14:14:41.583Z,30.86
2023-03-16T14:15:45.549Z,30.49
2023-03-16T14:16:48.876Z,30.67
2023-03-16T14:17:51.135Z,30.74
2023-03-16T14:19:17.660Z,30.95
2023-03-16T14:20:22.728Z,30.76
2023-03-16T14:21:32.013Z,31.01
2023-03-16T14:22:37.817Z,30.88
2023-03-16T14:23:48.681Z,31.28
2023-03-16T14:25:01.048Z,31.28
2023-03-16T14:26:12.786Z,31.13
2023-03-16T14:27:25.564Z,31.18
2023-03-16T14:28:33.844Z,31.07
2023-03-16T14:29:37.181Z,31.31
2023-03-16T14:30:50.864Z,31.32
2023-03-16T14:31:54.561Z,30.92